Time;durP1;ratioP1;P1;durP2;ratioP2;P2;SDS_P1;SDS_P2;PMS_P1;PMS_P2;Temp;Humidity;BMP_temperature;BMP_pressure;BME280_temperature;BME280_humidity;BME280_pressure;Samples;Min_cycle;Max_cycle;Signal;HPM_P1;HPM_P2
2023/08/01 00:02:20;;;;;;;15.07;5.30;;;16.50;99.90;;;;;;5101113;28;20071;-59
2023/08/01 00:04:46;;;;;;;13.35;5.32;;;16.40;99.90;;;;;;5100061;28;20062;-59
2023/08/01 00:07:11;;;;;;;14.50;5.45;;;16.50;99.90;;;;;;5100607;28;20050;-59
2023/08/01 00:09:37;;;;;;;12.40;4.22;;;16.30;99.90;;;;;;5101362;28;20063;-59
2023/08/01 00:12:03;;;;;;;13.80;5.07;;;16.30;99.90;;;;;;5099320;28;20040;-59
2023/08/01 00:14:28;;;;;;;13.27;5.00;;;16.30;99.90;;;;;;5101688;28;20079;-59
2023/08/01 00:16:54;;;;;;;12.43;4.50;;;16.30;99.90;;;;;;5099340;28;20233;-58
2023/08/01 00:19:20;;;;;;;10.77;4.28;;;16.20;99.90;;;;;;5101326;28;20044;-59
2023/08/01 00:21:46;;;;;;;11.68;4.38;;;16.20;99.90;;;;;;5099671;28;20059;-59
2023/08/01 00:24:12;;;;;;;11.45;4.18;;;16.10;99.90;;;;;;5100620;28;20109;-59
2023/08/01 00:26:38;;;;;;;11.57;4.22;;;16.10;99.90;;;;;;5101025;28;20566;-59
2023/08/01 00:29:03;;;;;;;12.02;4.80;;;16.20;99.90;;;;;;5099232;28;20055;-58
2023/08/01 00:31:29;;;;;;;11.77;4.47;;;16.00;99.90;;;;;;5101282;28;20115;-57
2023/08/01 00:33:55;;;;;;;12.18;4.40;;;16.20;99.90;;;;;;5097684;28;20084;-58
2023/08/01 00:36:21;;;;;;;10.85;4.80;;;16.00;99.90;;;;;;5100604;28;20468;-59
2023/08/01 00:38:47;;;;;;;11.63;4.20;;;16.00;99.90;;;;;;5098772;28;20065;-58
2023/08/01 00:41:12;;;;;;;12.20;4.65;;;16.00;99.90;;;;;;5100235;28;20044;-59
2023/08/01 00:43:38;;;;;;;10.82;4.22;;;16.00;99.90;;;;;;5099918;28;20515;-58
2023/08/01 00:46:05;;;;;;;10.52;4.40;;;16.00;99.90;;;;;;5098881;28;20044;-59
2023/08/01 00:48:32;;;;;;;14.13;5.20;;;16.10;99.90;;;;;;5100608;28;20036;-58
2023/08/01 00:51:04;;;;;;;10.02;4.40;;;15.90;99.90;;;;;;5098380;28;20071;-59
2023/08/01 00:53:30;;;;;;;8.40;3.78;;;15.90;99.90;;;;;;5100288;28;20115;-59
2023/08/01 00:55:57;;;;;;;10.65;4.75;;;15.90;99.90;;;;;;5098575;28;20063;-58
2023/08/01 00:58:23;;;;;;;10.75;4.50;;;15.90;99.90;;;;;;5099989;28;20440;-59
2023/08/01 01:00:49;;;;;;;13.02;5.55;;;15.90;99.90;;;;;;5100105;28;20105;-58
2023/08/01 01:03:16;;;;;;;9.85;4.35;;;15.80;99.90;;;;;;5098660;28;20094;-59
2023/08/01 01:05:53;;;;;;;11.65;5.18;;;15.80;99.90;;;;;;5100732;28;20515;-59
2023/08/01 01:08:20;;;;;;;10.38;4.20;;;15.90;99.90;;;;;;5098443;28;20047;-59
2023/08/01 01:10:46;;;;;;;10.00;5.00;;;15.70;99.90;;;;;;5100222;28;20032;-59
2023/08/01 01:13:12;;;;;;;11.18;5.25;;;15.70;99.90;;;;;;5098298;28;20055;-59
2023/08/01 01:15:38;;;;;;;12.95;4.63;;;15.60;99.90;;;;;;5099376;28;20048;-59
2023/08/01 01:18:03;;;;;;;8.48;4.68;;;15.70;99.90;;;;;;5099535;28;20055;-58
2023/08/01 01:20:35;;;;;;;10.57;5.00;;;15.80;99.90;;;;;;5098078;28;20108;-58
2023/08/01 01:23:03;;;;;;;10.25;4.45;;;15.60;99.90;;;;;;5099845;28;20048;-59
2023/08/01 01:25:30;;;;;;;11.68;4.15;;;15.70;99.90;;;;;;5097824;28;20062;-59
2023/08/01 01:27:57;;;;;;;10.98;4.80;;;15.70;99.90;;;;;;5099603;28;20047;-58
2023/08/01 01:30:24;;;;;;;12.63;4.85;;;15.60;99.90;;;;;;5097967;28;20067;-58
2023/08/01 01:32:51;;;;;;;12.40;4.78;;;15.70;99.90;;;;;;5098779;28;20039;-58
2023/08/01 01:35:16;;;;;;;11.73;4.43;;;15.70;99.90;;;;;;5099891;28;20435;-58
2023/08/01 01:37:42;;;;;;;10.73;5.05;;;15.70;99.90;;;;;;5098083;28;20036;-59
2023/08/01 01:40:08;;;;;;;14.02;4.45;;;15.70;99.90;;;;;;5100057;28;20471;-59
2023/08/01 01:42:34;;;;;;;12.70;4.32;;;15.70;99.90;;;;;;5079485;28;20476;-58
2023/08/01 01:44:59;;;;;;;12.00;4.30;;;15.70;99.90;;;;;;5080997;28;20044;-58
2023/08/01 01:47:25;;;;;;;12.32;4.68;;;15.70;99.90;;;;;;5097405;28;20081;-58
2023/08/01 01:49:50;;;;;;;13.05;4.45;;;15.60;99.90;;;;;;5098612;28;20479;-58
2023/08/01 01:52:16;;;;;;;9.70;4.53;;;15.80;99.90;;;;;;5099019;28;20047;-58
2023/08/01 01:54:42;;;;;;;11.30;4.57;;;15.70;99.90;;;;;;5097536;28;20189;-58
2023/08/01 01:57:08;;;;;;;12.50;5.03;;;15.80;99.90;;;;;;5088389;28;20060;-58
2023/08/01 01:59:33;;;;;;;11.52;5.20;;;15.60;99.90;;;;;;5076666;28;20123;-58
2023/08/01 02:01:59;;;;;;;9.45;3.90;;;15.60;99.90;;;;;;5078748;28;20044;-58
2023/08/01 02:04:25;;;;;;;8.95;4.55;;;15.70;99.90;;;;;;5076741;28;20076;-58
2023/08/01 02:06:53;;;;;;;10.15;5.13;;;15.60;99.90;;;;;;5078614;28;20048;-58
2023/08/01 02:09:19;;;;;;;9.75;4.43;;;15.60;99.90;;;;;;5078168;28;20040;-59
2023/08/01 02:11:44;;;;;;;11.32;4.15;;;15.70;99.90;;;;;;5077140;28;20123;-58
2023/08/01 02:14:10;;;;;;;11.70;5.15;;;15.60;99.90;;;;;;5079081;28;20795;-58
2023/08/01 02:16:36;;;;;;;12.23;4.15;;;15.50;99.90;;;;;;5076560;28;20055;-57
2023/08/01 02:19:01;;;;;;;10.98;3.85;;;15.50;99.90;;;;;;5078638;28;20051;-58
2023/08/01 02:21:27;;;;;;;12.32;4.00;;;15.50;99.90;;;;;;5058860;28;20119;-56
2023/08/01 02:23:52;;;;;;;10.20;3.88;;;15.60;99.90;;;;;;5078463;28;20047;-59
2023/08/01 02:26:18;;;;;;;11.55;4.10;;;15.50;99.90;;;;;;5077843;28;20070;-58
2023/08/01 02:28:44;;;;;;;10.40;4.35;;;15.50;99.90;;;;;;5077415;28;20067;-58
2023/08/01 02:31:09;;;;;;;10.80;4.47;;;15.40;99.90;;;;;;5078382;28;20215;-58
2023/08/01 02:33:35;;;;;;;11.57;4.93;;;15.40;99.90;;;;;;5076851;28;20048;-58
2023/08/01 02:36:01;;;;;;;11.73;4.60;;;15.30;99.90;;;;;;5079121;28;20508;-58
2023/08/01 02:38:26;;;;;;;12.52;4.82;;;15.30;99.90;;;;;;5076888;28;21299;-58
2023/08/01 02:40:52;;;;;;;14.57;4.90;;;15.40;99.90;;;;;;5060378;28;20063;-58
2023/08/01 02:43:17;;;;;;;13.25;4.70;;;15.40;99.90;;;;;;5077407;28;20033;-58
2023/08/01 02:45:43;;;;;;;10.77;4.30;;;15.40;99.90;;;;;;5059353;28;20049;-58
2023/08/01 02:48:09;;;;;;;12.35;5.03;;;15.40;99.90;;;;;;5078448;28;20047;-58
2023/08/01 02:50:35;;;;;;;9.65;4.10;;;15.40;99.90;;;;;;5076874;28;20658;-58
2023/08/01 02:53:00;;;;;;;9.50;4.70;;;15.40;99.90;;;;;;5079071;28;20049;-58
2023/08/01 02:55:26;;;;;;;10.90;4.32;;;15.40;99.90;;;;;;5077047;28;20092;-59
2023/08/01 02:57:52;;;;;;;9.50;4.15;;;15.40;99.90;;;;;;5099923;28;20036;-58
2023/08/01 03:00:17;;;;;;;10.23;3.78;;;15.30;99.90;;;;;;5101281;28;20499;-58
2023/08/01 03:02:43;;;;;;;11.48;4.28;;;15.20;99.90;;;;;;5102253;28;20062;-58
2023/08/01 03:05:09;;;;;;;11.48;4.25;;;15.30;99.90;;;;;;5102123;28;20407;-61
2023/08/01 03:07:35;;;;;;;10.05;4.03;;;15.30;99.90;;;;;;5100472;28;20051;-68
2023/08/01 03:10:02;;;;;;;14.15;4.82;;;15.30;99.90;;;;;;5102559;28;20055;-66
2023/08/01 03:12:27;;;;;;;12.80;4.18;;;15.10;99.90;;;;;;5082251;28;20903;-66
2023/08/01 03:14:53;;;;;;;9.93;5.13;;;15.10;99.90;;;;;;5102477;28;20040;-66
2023/08/01 03:17:19;;;;;;;12.38;4.30;;;15.20;99.90;;;;;;5100910;28;20546;-67
2023/08/01 03:19:44;;;;;;;13.98;4.28;;;15.00;99.90;;;;;;5101711;28;20067;-67
2023/08/01 03:22:10;;;;;;;9.60;4.22;;;15.00;99.90;;;;;;5102039;28;20047;-67
2023/08/01 03:24:36;;;;;;;11.98;4.70;;;14.90;99.90;;;;;;5100440;28;20055;-66
2023/08/01 03:27:02;;;;;;;11.07;5.05;;;15.00;99.90;;;;;;5102776;28;20040;-65
2023/08/01 03:29:27;;;;;;;10.60;4.90;;;15.10;99.90;;;;;;5099416;28;20083;-66
2023/08/01 03:31:53;;;;;;;10.00;4.75;;;14.90;99.90;;;;;;5102295;28;20063;-63
2023/08/01 03:34:19;;;;;;;10.52;4.18;;;15.00;99.90;;;;;;5100481;28;20047;-61
2023/08/01 03:36:44;;;;;;;11.90;4.40;;;14.90;99.90;;;;;;5101985;28;20420;-60
2023/08/01 03:39:10;;;;;;;14.05;4.97;;;14.90;99.90;;;;;;5100952;28;20430;-60
2023/08/01 03:41:37;;;;;;;10.35;4.47;;;15.10;99.90;;;;;;5100919;28;20383;-60
2023/08/01 03:44:03;;;;;;;13.73;4.30;;;15.10;99.90;;;;;;5101974;28;20044;-60
2023/08/01 03:46:28;;;;;;;9.48;3.80;;;14.90;99.90;;;;;;5100009;28;20048;-60
2023/08/01 03:48:54;;;;;;;10.60;3.67;;;14.90;99.90;;;;;;5102090;28;20099;-59
2023/08/01 03:51:20;;;;;;;8.88;3.72;;;15.00;99.90;;;;;;5100072;28;20044;-60
2023/08/01 03:53:46;;;;;;;12.32;3.55;;;15.00;99.90;;;;;;5101662;28;20056;-60
2023/08/01 03:56:12;;;;;;;8.65;3.55;;;14.90;99.90;;;;;;5097407;28;20086;-60
2023/08/01 03:58:37;;;;;;;9.52;4.40;;;14.80;99.90;;;;;;5080440;28;20033;-59
2023/08/01 04:01:03;;;;;;;9.60;3.67;;;14.80;99.90;;;;;;5081544;28;20052;-59
2023/08/01 04:03:29;;;;;;;10.55;3.85;;;14.90;99.90;;;;;;5061064;28;20048;-60
2023/08/01 04:05:54;;;;;;;11.85;4.25;;;14.80;99.90;;;;;;5081538;28;20055;-59
2023/08/01 04:08:20;;;;;;;14.35;3.72;;;14.80;99.90;;;;;;5078028;28;20051;-60
2023/08/01 04:10:46;;;;;;;10.40;3.10;;;14.70;99.90;;;;;;5080827;28;20041;-60
2023/08/01 04:13:11;;;;;;;8.68;2.95;;;14.80;99.90;;;;;;5080054;28;20041;-59
2023/08/01 04:15:37;;;;;;;13.23;3.00;;;14.90;99.90;;;;;;5080543;28;20102;-60
2023/08/01 04:18:03;;;;;;;11.02;2.80;;;14.80;99.90;;;;;;5080872;28;20041;-59
2023/08/01 04:20:29;;;;;;;13.10;2.53;;;14.90;99.90;;;;;;5079101;28;20040;-59
2023/08/01 04:22:54;;;;;;;9.00;2.88;;;14.80;99.90;;;;;;5081402;28;20116;-59
2023/08/01 04:25:20;;;;;;;7.45;2.40;;;14.90;99.90;;;;;;5078794;28;20053;-59
2023/08/01 04:27:46;;;;;;;8.93;2.10;;;14.70;99.90;;;;;;5081066;28;20097;-59
2023/08/01 04:30:12;;;;;;;10.32;2.35;;;14.80;99.90;;;;;;5060956;28;20063;-59
2023/08/01 04:32:37;;;;;;;9.80;2.17;;;15.00;99.90;;;;;;5080382;28;20059;-59
2023/08/01 04:35:03;;;;;;;7.68;2.42;;;14.90;99.90;;;;;;5080228;28;20111;-59
2023/08/01 04:37:29;;;;;;;7.75;2.35;;;14.90;99.90;;;;;;5078771;28;20412;-59
2023/08/01 04:39:54;;;;;;;8.73;2.15;;;14.90;99.90;;;;;;5080666;28;20082;-58
2023/08/01 04:42:20;;;;;;;7.95;1.77;;;14.80;99.90;;;;;;5078321;28;20096;-59
2023/08/01 04:44:46;;;;;;;9.88;2.28;;;14.90;99.90;;;;;;5080503;28;20182;-59
2023/08/01 04:47:13;;;;;;;5.95;2.38;;;15.00;99.90;;;;;;5079086;28;20041;-59
2023/08/01 04:49:38;;;;;;;8.27;2.28;;;15.10;99.90;;;;;;5079710;28;20105;-59
2023/08/01 04:52:05;;;;;;;9.43;2.20;;;15.10;99.90;;;;;;5079436;28;20036;-58
2023/08/01 04:54:30;;;;;;;6.88;2.60;;;15.10;99.90;;;;;;5078792;28;20135;-59
2023/08/01 04:56:56;;;;;;;7.95;2.10;;;15.10;99.90;;;;;;5071457;28;20071;-59
2023/08/01 04:59:22;;;;;;;10.10;2.00;;;15.20;99.90;;;;;;5098171;28;20051;-58
2023/08/01 05:01:47;;;;;;;5.45;2.00;;;15.40;99.90;;;;;;5100501;28;20115;-59
2023/08/01 05:04:13;;;;;;;10.55;2.33;;;15.40;99.90;;;;;;5097962;28;20062;-59
2023/08/01 05:06:40;;;;;;;9.05;1.88;;;15.40;99.90;;;;;;5100190;28;20032;-59
2023/08/01 05:09:06;;;;;;;9.95;2.95;;;15.50;99.90;;;;;;5099289;28;20082;-58
2023/08/01 05:11:32;;;;;;;7.82;2.20;;;15.50;99.90;;;;;;5093769;28;20054;-59
2023/08/01 05:13:58;;;;;;;7.95;2.25;;;15.50;99.90;;;;;;5078134;28;20071;-59
2023/08/01 05:16:23;;;;;;;6.95;2.03;;;15.50;99.90;;;;;;5076044;28;20508;-59
2023/08/01 05:18:49;;;;;;;9.20;2.45;;;15.50;99.90;;;;;;5077723;28;20052;-59
2023/08/01 05:21:15;;;;;;;7.72;2.22;;;15.40;99.90;;;;;;5094232;28;20032;-60
2023/08/01 05:23:40;;;;;;;8.25;2.53;;;15.60;99.90;;;;;;5095638;28;20093;-60
2023/08/01 05:26:06;;;;;;;7.63;2.35;;;15.60;99.90;;;;;;5094567;28;20052;-59
2023/08/01 05:28:32;;;;;;;7.03;2.38;;;15.60;99.90;;;;;;5077256;28;20507;-60
2023/08/01 05:30:57;;;;;;;7.13;2.20;;;15.60;99.90;;;;;;5095463;28;20123;-60
2023/08/01 05:33:23;;;;;;;7.20;2.45;;;15.40;99.90;;;;;;5093787;28;20079;-60
2023/08/01 05:35:50;;;;;;;9.38;2.60;;;15.50;99.90;;;;;;5096240;28;20048;-59
2023/08/01 05:38:16;;;;;;;7.78;2.20;;;15.30;99.90;;;;;;5094258;28;20040;-60
2023/08/01 05:40:41;;;;;;;8.35;2.42;;;15.40;99.90;;;;;;5095642;28;20059;-60
2023/08/01 05:43:08;;;;;;;7.90;2.45;;;15.40;99.90;;;;;;5094296;28;20047;-59
2023/08/01 05:45:35;;;;;;;8.18;3.17;;;15.40;99.90;;;;;;5097619;28;20107;-60
2023/08/01 05:48:01;;;;;;;7.32;2.53;;;15.40;99.90;;;;;;5098949;28;20051;-60
2023/08/01 05:50:27;;;;;;;12.27;2.90;;;15.40;99.90;;;;;;5096948;28;20048;-59
2023/08/01 05:52:53;;;;;;;7.88;2.42;;;15.40;99.90;;;;;;5098079;28;20047;-66
2023/08/01 05:55:18;;;;;;;7.93;3.20;;;15.50;99.90;;;;;;5095401;28;20067;-68
2023/08/01 05:57:44;;;;;;;8.20;2.47;;;15.40;99.90;;;;;;5081113;28;20090;-66
2023/08/01 06:00:11;;;;;;;11.35;2.92;;;15.40;99.90;;;;;;5097759;28;20050;-63
2023/08/01 06:02:37;;;;;;;7.97;2.60;;;15.40;99.90;;;;;;5098245;28;20685;-63
2023/08/01 06:05:03;;;;;;;8.30;2.20;;;15.60;99.90;;;;;;5098872;28;20051;-62
2023/08/01 06:07:29;;;;;;;10.98;3.20;;;15.60;99.90;;;;;;5097490;28;20128;-62
2023/08/01 06:09:55;;;;;;;6.30;2.22;;;15.50;99.90;;;;;;5099628;28;20043;-61
2023/08/01 06:12:21;;;;;;;6.88;2.42;;;15.40;99.90;;;;;;5097230;28;20505;-63
2023/08/01 06:14:48;;;;;;;7.13;1.98;;;15.50;99.90;;;;;;5099249;28;20070;-65
2023/08/01 06:17:14;;;;;;;7.47;2.15;;;15.30;99.90;;;;;;5079334;28;20052;-65
2023/08/01 06:19:39;;;;;;;8.48;2.88;;;15.20;99.90;;;;;;5080632;28;20395;-64
2023/08/01 06:22:05;;;;;;;7.25;2.17;;;15.40;99.90;;;;;;5098669;28;20578;-62
2023/08/01 06:24:31;;;;;;;7.90;2.20;;;15.30;99.90;;;;;;5062503;28;20036;-61
2023/08/01 06:26:57;;;;;;;9.35;2.40;;;15.20;99.90;;;;;;5099055;28;20048;-61
2023/08/01 06:29:24;;;;;;;5.50;1.55;;;15.40;99.90;;;;;;5079167;28;20044;-61
2023/08/01 06:31:49;;;;;;;5.03;1.60;;;15.30;99.90;;;;;;5097827;28;20126;-61
2023/08/01 06:34:15;;;;;;;5.18;1.80;;;15.30;99.90;;;;;;5096964;28;20048;-61
2023/08/01 06:36:41;;;;;;;6.30;1.92;;;15.50;99.90;;;;;;5098496;28;20040;-60
2023/08/01 06:39:07;;;;;;;5.82;1.73;;;15.30;99.90;;;;;;5097850;28;20097;-59
2023/08/01 06:41:33;;;;;;;5.80;1.65;;;15.50;99.90;;;;;;5097369;28;20048;-60
2023/08/01 06:43:58;;;;;;;5.93;1.70;;;15.50;99.90;;;;;;5099101;28;20040;-60
2023/08/01 06:46:24;;;;;;;6.93;1.67;;;15.60;99.90;;;;;;5096620;28;20051;-59
2023/08/01 06:48:50;;;;;;;4.55;1.40;;;15.60;99.90;;;;;;5098127;28;20040;-60
2023/08/01 06:51:15;;;;;;;5.95;1.88;;;15.50;99.90;;;;;;5116613;28;20092;-59
2023/08/01 06:53:41;;;;;;;5.45;2.05;;;15.70;99.90;;;;;;5108226;28;20040;-59
2023/08/01 06:56:07;;;;;;;7.30;2.05;;;15.70;99.90;;;;;;5094749;28;20510;-58
2023/08/01 06:58:32;;;;;;;5.03;1.48;;;15.80;99.90;;;;;;5077031;28;20585;-59
2023/08/01 07:00:58;;;;;;;7.07;1.20;;;15.70;99.90;;;;;;5078126;28;20049;-58
2023/08/01 07:03:24;;;;;;;3.53;1.15;;;15.90;99.90;;;;;;5075955;28;20518;-58
2023/08/01 07:05:49;;;;;;;5.95;1.38;;;16.00;99.90;;;;;;5075390;28;20114;-59
2023/08/01 07:08:15;;;;;;;5.53;1.30;;;15.90;99.90;;;;;;5073917;28;20033;-60
2023/08/01 07:10:41;;;;;;;3.97;1.23;;;15.60;99.90;;;;;;5076608;28;20033;-60
2023/08/01 07:13:06;;;;;;;4.70;1.40;;;15.80;99.90;;;;;;5076503;28;20096;-60
2023/08/01 07:15:33;;;;;;;5.85;1.23;;;15.90;99.90;;;;;;5076572;28;20043;-60
2023/08/01 07:17:59;;;;;;;4.47;1.30;;;16.10;99.90;;;;;;5077367;28;20496;-60
2023/08/01 07:20:24;;;;;;;5.53;1.20;;;16.10;99.90;;;;;;5075801;28;20051;-63
2023/08/01 07:22:50;;;;;;;4.82;1.60;;;15.90;99.90;;;;;;5077595;28;20036;-66
2023/08/01 07:25:16;;;;;;;5.30;1.15;;;15.80;99.90;;;;;;5075388;28;20420;-65
2023/08/01 07:27:42;;;;;;;5.70;1.90;;;15.90;99.90;;;;;;5077301;28;20040;-63
2023/08/01 07:30:10;;;;;;;7.22;1.38;;;15.80;99.90;;;;;;5075965;28;20087;-62
2023/08/01 07:32:37;;;;;;;7.82;1.48;;;15.80;99.90;;;;;;5076458;28;20052;-61
2023/08/01 07:35:04;;;;;;;5.43;1.48;;;15.80;99.90;;;;;;5077316;28;20045;-60
2023/08/01 07:37:30;;;;;;;7.30;1.10;;;15.90;99.90;;;;;;5074437;28;20074;-60
2023/08/01 07:39:56;;;;;;;7.13;1.90;;;15.80;99.90;;;;;;5059143;28;20044;-60
2023/08/01 07:42:22;;;;;;;7.47;1.40;;;15.90;99.90;;;;;;5076851;28;20415;-60
2023/08/01 07:44:48;;;;;;;7.28;1.88;;;15.80;99.90;;;;;;5080805;28;20055;-60
2023/08/01 07:47:14;;;;;;;6.50;1.60;;;16.10;99.90;;;;;;5079053;28;20036;-60
2023/08/01 07:49:39;;;;;;;4.55;1.27;;;16.00;99.90;;;;;;5061975;28;20041;-61
2023/08/01 07:52:05;;;;;;;8.43;1.55;;;16.40;99.90;;;;;;5061758;28;20064;-60
2023/08/01 07:54:31;;;;;;;8.45;1.70;;;16.20;99.90;;;;;;5079059;28;20507;-60
2023/08/01 07:56:56;;;;;;;6.90;1.20;;;16.20;99.90;;;;;;5086619;28;20062;-60
2023/08/01 07:59:22;;;;;;;6.68;1.80;;;16.30;99.90;;;;;;5085187;28;20177;-60
2023/08/01 08:01:48;;;;;;;5.90;1.45;;;16.30;99.90;;;;;;5090869;28;20036;-59
2023/08/01 08:04:14;;;;;;;9.48;1.60;;;16.30;99.90;;;;;;5086009;28;20044;-59
2023/08/01 08:06:40;;;;;;;8.35;1.80;;;16.50;99.90;;;;;;5085384;28;20048;-60
2023/08/01 08:09:06;;;;;;;5.50;1.55;;;16.30;99.90;;;;;;5091634;28;20040;-58
2023/08/01 08:11:33;;;;;;;7.22;1.90;;;16.60;99.90;;;;;;5099391;28;20487;-59
2023/08/01 08:13:59;;;;;;;9.48;1.70;;;16.50;99.90;;;;;;5100633;28;20107;-59
2023/08/01 08:16:25;;;;;;;7.88;1.30;;;16.70;99.90;;;;;;5098495;28;20048;-59
2023/08/01 08:18:51;;;;;;;6.93;1.80;;;16.30;99.90;;;;;;5100208;28;20405;-60
2023/08/01 08:21:17;;;;;;;4.93;1.42;;;16.40;99.90;;;;;;5095237;28;20042;-59
2023/08/01 08:23:42;;;;;;;5.05;1.15;;;16.20;99.90;;;;;;5090443;28;20062;-59
2023/08/01 08:26:08;;;;;;;5.85;1.20;;;15.80;99.90;;;;;;5088173;28;20040;-60
2023/08/01 08:28:34;;;;;;;4.32;1.23;;;15.60;99.90;;;;;;5088595;28;20040;-63
2023/08/01 08:31:02;;;;;;;6.28;1.55;;;15.40;99.90;;;;;;5090439;28;20048;-68
2023/08/01 08:33:28;;;;;;;6.50;1.38;;;15.40;99.90;;;;;;5086542;28;20044;-68
2023/08/01 08:35:54;;;;;;;5.57;1.40;;;15.10;99.90;;;;;;5088811;28;20075;-68
2023/08/01 08:38:20;;;;;;;6.25;1.67;;;15.20;99.90;;;;;;5086892;28;20592;-65
2023/08/01 08:41:16;;;;;;;6.25;1.50;;;15.00;99.90;;;;;;5090332;28;20051;-63
2023/08/01 08:43:42;;;;;;;7.18;1.63;;;15.40;99.90;;;;;;5078462;28;20056;-62
2023/08/01 08:46:09;;;;;;;5.53;1.60;;;15.50;99.90;;;;;;5077189;28;20048;-62
2023/08/01 08:48:36;;;;;;;4.30;1.60;;;15.40;99.90;;;;;;5079371;28;20047;-61
2023/08/01 08:51:03;;;;;;;7.80;1.80;;;15.70;99.90;;;;;;5077868;28;20040;-61
2023/08/01 08:53:30;;;;;;;7.07;2.40;;;15.50;99.90;;;;;;5078860;28;20047;-60
2023/08/01 08:55:56;;;;;;;5.78;1.98;;;15.70;99.90;;;;;;5078855;28;20045;-60
2023/08/01 08:58:23;;;;;;;9.35;2.20;;;15.90;99.90;;;;;;5098796;28;20056;-60
2023/08/01 09:00:49;;;;;;;9.93;2.47;;;16.20;99.90;;;;;;5099279;28;20052;-60
2023/08/01 09:03:15;;;;;;;8.95;2.20;;;16.60;99.90;;;;;;5097662;28;20119;-60
2023/08/01 09:05:59;;;;;;;7.22;2.08;;;16.50;99.90;;;;;;5099504;28;20047;-60
2023/08/01 09:08:29;;;;;;;8.90;2.35;;;16.60;99.90;;;;;;5097168;28;20403;-60
2023/08/01 09:10:55;;;;;;;8.20;2.22;;;16.60;99.90;;;;;;5099161;28;20407;-59
2023/08/01 09:13:21;;;;;;;8.23;2.03;;;16.80;99.90;;;;;;5098716;28;20048;-60
2023/08/01 09:15:47;;;;;;;6.30;2.03;;;16.70;99.90;;;;;;5097668;28;20040;-60
2023/08/01 09:18:13;;;;;;;9.13;1.90;;;17.00;99.90;;;;;;5099571;28;20072;-60
2023/08/01 09:20:49;;;;;;;6.63;1.58;;;16.70;99.90;;;;;;5079322;28;20101;-60
2023/08/01 09:23:16;;;;;;;7.38;2.28;;;16.60;99.90;;;;;;5099425;28;20036;-60
2023/08/01 09:25:43;;;;;;;6.82;1.73;;;16.40;99.90;;;;;;5097264;28;20050;-60
2023/08/01 09:28:24;;;;;;;5.40;1.10;;;16.20;99.90;;;;;;5098478;28;20131;-60
2023/08/01 09:30:55;;;;;;;4.57;1.23;;;16.00;99.90;;;;;;5099290;28;20044;-61
2023/08/01 09:33:21;;;;;;;6.32;1.20;;;15.80;99.90;;;;;;5097461;28;20058;-61
2023/08/01 09:35:50;;;;;;;7.25;1.33;;;15.90;99.90;;;;;;5098925;28;20095;-60
2023/08/01 09:38:16;;;;;;;7.55;1.48;;;16.00;99.90;;;;;;5096707;28;20040;-60
2023/08/01 09:40:43;;;;;;;6.20;1.33;;;16.30;99.90;;;;;;5098459;28;20083;-60
2023/08/01 09:43:13;;;;;;;4.70;1.30;;;16.40;99.90;;;;;;5097662;28;20067;-60
2023/08/01 09:45:53;;;;;;;8.15;1.90;;;16.70;99.90;;;;;;5097645;28;20040;-60
2023/08/01 09:48:29;;;;;;;8.27;2.20;;;17.00;99.90;;;;;;5098389;28;20051;-60
2023/08/01 09:51:11;;;;;;;12.18;1.65;;;17.10;99.90;;;;;;5096577;28;20188;-60
2023/08/01 09:53:48;;;;;;;9.32;1.98;;;17.10;99.90;;;;;;5098255;28;20067;-60
2023/08/01 09:56:17;;;;;;;6.38;2.25;;;17.40;99.90;;;;;;5094576;28;20037;-60
2023/08/01 09:58:44;;;;;;;8.93;1.70;;;17.60;99.90;;;;;;5076883;28;20092;-60
2023/08/01 10:01:10;;;;;;;6.93;1.52;;;17.70;99.90;;;;;;5078109;28;20096;-59
2023/08/01 10:03:36;;;;;;;6.80;1.67;;;18.00;99.90;;;;;;5076311;28;20444;-59
2023/08/01 10:06:02;;;;;;;8.23;1.60;;;17.90;99.90;;;;;;5077621;28;20044;-59
2023/08/01 10:08:29;;;;;;;7.13;1.48;;;18.00;99.90;;;;;;5076694;28;20041;-59
2023/08/01 10:10:57;;;;;;;7.20;1.70;;;17.80;99.90;;;;;;5077733;28;20044;-59
2023/08/01 10:13:27;;;;;;;5.25;1.63;;;17.40;99.90;;;;;;5077466;28;20048;-59
2023/08/01 10:15:53;;;;;;;6.93;1.48;;;17.10;99.90;;;;;;5076406;28;20475;-59
2023/08/01 10:18:19;;;;;;;5.68;1.52;;;17.00;99.90;;;;;;5078007;28;20068;-59
2023/08/01 10:20:46;;;;;;;6.03;1.63;;;17.20;99.90;;;;;;5075942;28;20045;-58
2023/08/01 10:23:12;;;;;;;6.95;1.63;;;17.20;99.90;;;;;;5077929;28;20040;-59
2023/08/01 10:25:39;;;;;;;8.57;1.50;;;17.30;99.90;;;;;;5076840;28;20048;-59
2023/08/01 10:28:05;;;;;;;6.85;1.58;;;17.50;99.90;;;;;;5077666;28;20048;-59
2023/08/01 10:30:31;;;;;;;6.63;2.08;;;17.60;99.90;;;;;;5077723;28;20459;-59
2023/08/01 10:32:59;;;;;;;6.28;1.50;;;17.70;99.90;;;;;;5072659;28;20060;-59
2023/08/01 10:35:36;;;;;;;10.13;1.63;;;17.70;99.90;;;;;;5078418;28;20074;-59
2023/08/01 10:38:12;;;;;;;5.20;1.58;;;18.10;99.90;;;;;;5076124;28;20079;-59
2023/08/01 10:40:40;;;;;;;5.75;1.77;;;18.20;99.90;;;;;;5077398;28;20146;-59
2023/08/01 10:43:06;;;;;;;9.65;1.40;;;18.20;99.90;;;;;;5076668;28;20045;-58
2023/08/01 10:45:32;;;;;;;8.68;2.00;;;18.20;99.90;;;;;;5076834;28;20084;-58
2023/08/01 10:48:09;;;;;;;5.38;1.50;;;18.40;99.90;;;;;;5077503;28;20064;-58
2023/08/01 10:50:35;;;;;;;9.55;1.50;;;18.10;99.90;;;;;;5075522;28;20048;-59
2023/08/01 10:53:09;;;;;;;8.02;1.38;;;18.20;99.90;;;;;;5077761;28;20403;-58
2023/08/01 10:55:42;;;;;;;8.00;1.60;;;18.00;99.90;;;;;;5076204;28;20123;-59
2023/08/01 10:58:08;;;;;;;6.13;1.13;;;18.20;99.90;;;;;;5096315;28;20044;-59
2023/08/01 11:00:33;;;;;;;6.70;1.58;;;18.20;99.90;;;;;;5097277;28;20048;-55
2023/08/01 11:02:59;;;;;;;7.28;1.73;;;18.00;99.90;;;;;;5096505;28;20040;-58
2023/08/01 11:05:26;;;;;;;9.07;1.65;;;18.40;99.90;;;;;;5097926;28;20586;-58
2023/08/01 11:08:02;;;;;;;5.35;1.40;;;18.40;99.90;;;;;;5095527;28;20036;-58
2023/08/01 11:10:30;;;;;;;8.77;1.45;;;18.40;99.90;;;;;;5097452;28;20055;-55
2023/08/01 11:12:57;;;;;;;10.63;1.55;;;18.30;99.90;;;;;;5096246;28;20052;-58
2023/08/01 11:15:23;;;;;;;5.50;1.35;;;18.10;99.90;;;;;;5097288;28;20074;-59
2023/08/01 11:17:51;;;;;;;5.90;1.40;;;18.10;99.90;;;;;;5099550;28;20088;-59
2023/08/01 11:20:21;;;;;;;4.63;1.10;;;18.20;99.90;;;;;;5099637;28;20042;-59
2023/08/01 11:22:50;;;;;;;6.00;1.20;;;18.20;99.90;;;;;;5101533;28;20047;-59
2023/08/01 11:25:16;;;;;;;8.18;1.13;;;18.10;99.90;;;;;;5098842;28;20044;-58
2023/08/01 11:27:42;;;;;;;6.55;1.52;;;18.20;99.90;;;;;;5100668;28;20104;-56
2023/08/01 11:30:08;;;;;;;7.82;1.30;;;18.50;99.90;;;;;;5081172;28;20051;-59
2023/08/01 11:32:36;;;;;;;12.25;1.80;;;18.60;99.90;;;;;;5081682;28;20059;-58
2023/08/01 11:35:02;;;;;;;8.18;1.60;;;18.60;99.90;;;;;;5100151;28;20051;-58
2023/08/01 11:37:28;;;;;;;5.10;1.13;;;18.70;99.90;;;;;;5099261;28;20048;-58
2023/08/01 11:39:55;;;;;;;5.32;1.08;;;18.50;99.90;;;;;;5101420;28;20052;-58
2023/08/01 11:42:20;;;;;;;6.47;1.48;;;18.40;99.90;;;;;;5099107;28;20055;-58
2023/08/01 11:44:46;;;;;;;4.78;1.05;;;18.40;99.90;;;;;;5101173;28;20044;-59
2023/08/01 11:47:16;;;;;;;8.35;1.40;;;18.40;99.90;;;;;;5099446;28;20040;-59
2023/08/01 11:49:46;;;;;;;6.18;1.10;;;18.40;99.90;;;;;;5099941;28;20039;-59
2023/08/01 11:52:26;;;;;;;7.07;1.67;;;18.60;99.90;;;;;;5082913;28;20431;-59
2023/08/01 11:54:52;;;;;;;5.93;1.00;;;18.60;99.90;;;;;;5098993;28;20455;-59
2023/08/01 11:57:18;;;;;;;3.70;1.15;;;18.50;99.90;;;;;;5088303;28;20059;-58
2023/08/01 11:59:52;;;;;;;5.20;1.20;;;18.40;99.90;;;;;;5078474;28;20059;-58
2023/08/01 12:02:31;;;;;;;4.47;1.10;;;18.20;99.90;;;;;;5079672;28;20053;-58
2023/08/01 12:04:57;;;;;;;6.22;1.30;;;18.30;99.90;;;;;;5080362;28;20048;-58
2023/08/01 12:07:25;;;;;;;5.97;1.17;;;18.60;99.90;;;;;;5060392;28;20059;-59
2023/08/01 12:10:01;;;;;;;5.72;1.63;;;18.50;99.90;;;;;;5080795;28;20037;-59
2023/08/01 12:12:28;;;;;;;5.15;1.20;;;18.30;99.90;;;;;;5078308;28;20045;-58
2023/08/01 12:14:54;;;;;;;6.07;1.50;;;18.30;99.90;;;;;;5080717;28;20059;-59
2023/08/01 12:17:20;;;;;;;9.80;1.60;;;18.60;99.90;;;;;;5079607;28;20048;-58
2023/08/01 12:19:46;;;;;;;5.85;1.65;;;19.00;99.90;;;;;;5079578;28;20044;-59
2023/08/01 12:22:12;;;;;;;5.00;1.40;;;19.30;99.90;;;;;;5080560;28;20044;-58
2023/08/01 12:24:38;;;;;;;7.57;1.40;;;19.00;99.90;;;;;;5078612;28;20078;-59
2023/08/01 12:27:08;;;;;;;6.70;1.75;;;18.80;99.90;;;;;;5079906;28;20056;-59
2023/08/01 12:29:34;;;;;;;5.25;1.50;;;18.40;99.90;;;;;;5059466;28;20072;-59
2023/08/01 12:31:59;;;;;;;8.90;1.60;;;18.40;99.90;;;;;;5079399;28;20416;-59
2023/08/01 12:34:25;;;;;;;7.68;1.73;;;18.40;99.90;;;;;;5078908;28;20049;-58
2023/08/01 12:36:51;;;;;;;5.78;1.40;;;18.30;99.90;;;;;;5079168;28;20045;-58
2023/08/01 12:39:16;;;;;;;5.65;1.60;;;18.40;99.90;;;;;;5061618;28;20052;-58
2023/08/01 12:41:42;;;;;;;8.10;1.95;;;18.40;99.90;;;;;;5077556;28;20094;-57